createdAt,value
2022-12-23T00:01:27.272Z,14.60
2022-12-23T00:06:30.790Z,14.07
2022-12-23T00:11:34.505Z,13.73
2022-12-23T00:16:39.578Z,13.20
2022-12-23T00:21:42.992Z,13.50
2022-12-23T00:26:46.675Z,12.40
2022-12-23T00:31:51.505Z,12.77
2022-12-23T00:36:55.039Z,13.67
2022-12-23T00:42:16.053Z,13.23
2022-12-23T00:47:38.274Z,14.10
2022-12-23T00:52:41.680Z,13.50
2022-12-23T00:57:45.151Z,14.10
2022-12-23T01:03:03.852Z,13.00
2022-12-23T01:08:09.168Z,13.33
2022-12-23T01:13:12.600Z,13.93
2022-12-23T01:18:17.715Z,13.90
2022-12-23T01:23:21.094Z,14.07
2022-12-23T01:28:24.685Z,13.80
2022-12-23T01:33:29.706Z,13.03
2022-12-23T01:38:33.150Z,14.40
2022-12-23T01:43:48.153Z,13.27
2022-12-23T01:48:54.212Z,12.10
2022-12-23T01:54:01.271Z,12.33
2022-12-23T01:59:11.413Z,12.30
2022-12-23T02:04:20.752Z,12.43
2022-12-23T02:09:26.944Z,12.10
2022-12-23T02:15:02.841Z,11.07
2022-12-23T02:20:52.184Z,11.53
2022-12-23T02:26:16.369Z,12.77
2022-12-23T02:31:27.931Z,12.97
2022-12-23T02:36:40.685Z,10.07
2022-12-23T02:41:54.674Z,10.20
2022-12-23T02:47:05.671Z,10.33
2022-12-23T02:52:14.522Z,11.33
2022-12-23T02:57:21.767Z,8.97
2022-12-23T03:02:26.709Z,10.53
2022-12-23T03:07:33.900Z,11.60
2022-12-23T03:12:50.818Z,11.13
2022-12-23T03:18:04.649Z,11.37
2022-12-23T03:23:16.664Z,11.20
2022-12-23T03:28:27.819Z,9.73
2022-12-23T03:33:36.937Z,9.57
2022-12-23T03:38:43.454Z,10.20
2022-12-23T03:43:51.782Z,9.73
2022-12-23T03:49:00.867Z,8.77
2022-12-23T03:54:09.385Z,8.27
2022-12-23T03:59:18.709Z,8.33
2022-12-23T04:04:28.937Z,8.53
2022-12-23T04:09:32.666Z,7.17
2022-12-23T04:14:37.773Z,7.37
2022-12-23T04:19:42.669Z,6.57
2022-12-23T04:24:46.105Z,7.03
2022-12-23T04:29:49.554Z,6.93
2022-12-23T04:34:54.332Z,6.30
2022-12-23T04:39:57.769Z,7.53
2022-12-23T04:45:01.170Z,6.93
2022-12-23T04:50:09.878Z,6.40
2022-12-23T04:55:14.128Z,6.50
2022-12-23T05:00:18.670Z,5.73
2022-12-23T05:05:23.481Z,6.00
2022-12-23T05:10:27.261Z,6.57
2022-12-23T05:15:33.141Z,6.77
2022-12-23T05:20:38.279Z,6.47
2022-12-23T05:25:41.754Z,5.77
2022-12-23T05:30:45.223Z,6.73
2022-12-23T05:35:50.127Z,6.33
2022-12-23T05:40:53.979Z,6.93
2022-12-23T05:45:57.487Z,5.93
2022-12-23T05:51:02.321Z,6.00
2022-12-23T05:56:07.150Z,5.63
2022-12-23T06:01:10.530Z,5.67
2022-12-23T06:06:15.681Z,5.37
2022-12-23T06:11:19.164Z,5.83
2022-12-23T06:16:22.656Z,5.47
2022-12-23T06:21:28.249Z,5.50
2022-12-23T06:26:31.993Z,5.30
2022-12-23T06:31:35.403Z,5.80
2022-12-23T06:36:40.403Z,5.80
2022-12-23T06:41:43.823Z,5.33
2022-12-23T06:46:47.303Z,5.60
2022-12-23T06:51:52.085Z,4.97
2022-12-23T06:56:55.768Z,6.77
2022-12-23T07:01:59.788Z,8.87
2022-12-23T07:07:05.331Z,7.33
2022-12-23T07:12:09.351Z,7.27
2022-12-23T07:17:13.071Z,7.80
2022-12-23T07:22:18.245Z,7.00
2022-12-23T07:27:21.955Z,6.93
2022-12-23T07:32:25.405Z,8.00
2022-12-23T07:37:30.264Z,7.80
2022-12-23T07:42:44.800Z,7.67
2022-12-23T07:47:54.003Z,6.57
2022-12-23T07:52:58.992Z,6.20
2022-12-23T07:58:02.670Z,6.40
2022-12-23T08:03:06.216Z,5.60
2022-12-23T08:08:11.094Z,5.27
2022-12-23T08:13:14.535Z,6.20
2022-12-23T08:18:17.944Z,5.23
2022-12-23T08:23:24.923Z,6.17
2022-12-23T08:28:28.940Z,6.13
2022-12-23T08:33:32.392Z,6.03
2022-12-23T08:38:38.061Z,6.00
2022-12-23T08:43:41.565Z,5.70
2022-12-23T08:48:49.170Z,5.33
2022-12-23T08:54:00.166Z,5.27
2022-12-23T08:59:05.293Z,5.63
2022-12-23T09:04:09.387Z,5.40
2022-12-23T09:09:15.884Z,5.27
2022-12-23T09:14:19.399Z,5.87
2022-12-23T09:19:23.066Z,6.33
2022-12-23T09:24:27.859Z,5.73
2022-12-23T09:29:31.262Z,5.93
2022-12-23T09:34:34.757Z,6.80
2022-12-23T09:39:39.648Z,6.53
2022-12-23T09:45:03.244Z,6.77
2022-12-23T09:50:19.443Z,6.57
2022-12-23T09:55:30.374Z,6.53
2022-12-23T10:00:39.959Z,6.33
2022-12-23T10:05:57.608Z,5.00
2022-12-23T10:11:06.514Z,5.37
2022-12-23T10:16:15.657Z,4.60
2022-12-23T10:21:26.050Z,5.00
2022-12-23T10:26:36.016Z,4.97
2022-12-23T10:31:46.521Z,5.13
2022-12-23T10:36:59.406Z,5.10
2022-12-23T10:42:13.735Z,4.40
2022-12-23T10:47:26.825Z,4.37
2022-12-23T10:52:35.232Z,4.90
2022-12-23T10:57:40.294Z,4.70
2022-12-23T11:02:51.511Z,5.13
2022-12-23T11:07:57.259Z,5.37
2022-12-23T11:13:02.744Z,6.10
2022-12-23T11:18:17.775Z,5.80
2022-12-23T11:23:26.630Z,6.13
2022-12-23T11:28:32.670Z,6.60
2022-12-23T11:33:39.778Z,6.87
2022-12-23T11:38:51.513Z,5.23
2022-12-23T11:44:00.453Z,5.93
2022-12-23T11:49:19.046Z,6.53
2022-12-23T11:54:22.473Z,7.47
2022-12-23T11:59:34.999Z,8.23
2022-12-23T12:04:39.111Z,7.63
2022-12-23T12:09:45.940Z,7.30
2022-12-23T12:14:53.102Z,7.33
2022-12-23T12:20:06.152Z,7.10
2022-12-23T12:25:22.253Z,7.47
2022-12-23T12:30:34.239Z,7.57
2022-12-23T12:35:43.889Z,7.73
2022-12-23T12:40:51.152Z,7.63
2022-12-23T12:46:07.888Z,7.93
2022-12-23T12:51:22.270Z,8.33
2022-12-23T12:56:31.681Z,8.63
2022-12-23T13:01:47.486Z,8.87
2022-12-23T13:07:04.037Z,8.10
2022-12-23T13:12:16.610Z,7.60
2022-12-23T13:17:26.271Z,8.63
2022-12-23T13:22:33.885Z,8.50
2022-12-23T13:27:45.828Z,15.03
2022-12-23T13:33:13.720Z,8.70
2022-12-23T13:38:29.580Z,6.97
2022-12-23T13:43:41.959Z,6.90
2022-12-23T13:48:53.770Z,6.07
2022-12-23T13:54:05.042Z,8.07
2022-12-23T13:59:11.703Z,6.97
2022-12-23T14:04:37.675Z,7.77
2022-12-23T14:09:41.096Z,7.37
2022-12-23T14:14:58.986Z,8.17
2022-12-23T14:20:20.989Z,8.17
2022-12-23T14:25:52.001Z,8.30
2022-12-23T14:30:57.405Z,9.73
2022-12-23T14:36:23.247Z,8.70
2022-12-23T14:41:39.117Z,7.40
2022-12-23T14:46:57.915Z,7.87
2022-12-23T14:52:36.803Z,7.23
2022-12-23T14:57:45.170Z,7.03
2022-12-23T15:02:48.746Z,7.10
2022-12-23T15:07:57.041Z,8.43
2022-12-23T15:13:06.131Z,8.40
2022-12-23T15:18:14.160Z,7.40
2022-12-23T15:23:18.719Z,9.37
2022-12-23T15:28:32.689Z,9.10
2022-12-23T15:34:02.963Z,8.37
2022-12-23T15:39:02.833Z,8.73
2022-12-23T15:44:14.322Z,7.97
2022-12-23T15:49:19.479Z,8.30
2022-12-23T15:54:28.512Z,11.10
2022-12-23T15:59:37.901Z,9.80
2022-12-23T16:04:41.351Z,11.03
2022-12-23T16:09:44.969Z,12.77
2022-12-23T16:14:55.943Z,11.27
2022-12-23T16:20:22.757Z,10.07
2022-12-23T16:25:28.513Z,10.37
2022-12-23T16:30:36.626Z,9.90
2022-12-23T16:35:42.009Z,7.80
2022-12-23T16:40:48.252Z,9.37
2022-12-23T16:45:56.205Z,8.30
2022-12-23T16:51:01.034Z,8.00
2022-12-23T16:56:05.083Z,7.70
2022-12-23T17:01:13.878Z,7.50
2022-12-23T17:06:18.536Z,11.47
2022-12-23T17:11:25.280Z,10.30
2022-12-23T17:16:30.295Z,8.57
2022-12-23T17:21:37.176Z,8.20
2022-12-23T17:26:41.100Z,15.77
2022-12-23T17:31:46.994Z,31.30
2022-12-23T17:36:51.403Z,19.83
2022-12-23T17:41:55.460Z,12.17
2022-12-23T17:47:00.334Z,11.50
2022-12-23T17:52:07.004Z,11.17
2022-12-23T17:57:19.350Z,10.00
2022-12-23T18:02:26.986Z,13.40
2022-12-23T18:07:30.494Z,11.53
2022-12-23T18:12:36.775Z,12.30
2022-12-23T18:17:41.865Z,10.20
2022-12-23T18:22:46.749Z,8.93
2022-12-23T18:27:50.609Z,12.07
2022-12-23T18:32:55.474Z,9.77
2022-12-23T18:38:00.077Z,9.83
2022-12-23T18:43:03.930Z,9.27
2022-12-23T18:48:10.685Z,10.17
2022-12-23T18:53:23.857Z,8.60
2022-12-23T18:58:28.454Z,10.10
2022-12-23T19:03:33.522Z,8.60
2022-12-23T19:08:38.723Z,8.63
2022-12-23T19:13:42.216Z,8.43
2022-12-23T19:18:48.109Z,8.70
2022-12-23T19:23:51.579Z,9.63
2022-12-23T19:28:55.111Z,8.60
2022-12-23T19:34:01.474Z,7.27
2022-12-23T19:39:05.239Z,7.77
2022-12-23T19:44:08.757Z,8.63
2022-12-23T19:49:19.489Z,10.47
2022-12-23T19:54:23.721Z,9.80
2022-12-23T19:59:27.321Z,9.90
2022-12-23T20:04:32.222Z,8.97
2022-12-23T20:09:35.851Z,11.03
2022-12-23T20:14:39.370Z,10.03
2022-12-23T20:19:46.395Z,8.90
2022-12-23T20:24:50.155Z,11.20
2022-12-23T20:29:53.642Z,14.57
2022-12-23T20:34:58.449Z,11.67
2022-12-23T20:40:01.882Z,12.13
2022-12-23T20:45:07.921Z,12.23
2022-12-23T20:50:12.751Z,12.63
2022-12-23T20:55:16.318Z,13.50
2022-12-23T21:00:20.149Z,13.13
2022-12-23T21:05:25.007Z,13.47
2022-12-23T21:10:28.748Z,11.23
2022-12-23T21:15:32.654Z,12.37
2022-12-23T21:20:39.223Z,13.23
2022-12-23T21:25:42.636Z,16.80
2022-12-23T21:30:46.092Z,14.50
2022-12-23T21:35:50.938Z,14.83
2022-12-23T21:41:01.121Z,18.13
2022-12-23T21:46:07.078Z,19.77
2022-12-23T21:51:15.475Z,18.37
2022-12-23T21:56:21.406Z,17.37
2022-12-23T22:01:25.339Z,18.57
2022-12-23T22:06:32.030Z,23.63
2022-12-23T22:11:37.640Z,28.50
2022-12-23T22:16:41.217Z,26.90
2022-12-23T22:21:46.079Z,27.13
2022-12-23T22:26:49.498Z,26.03
2022-12-23T22:31:53.832Z,25.57
2022-12-23T22:36:58.995Z,26.43
2022-12-23T22:42:03.785Z,25.27
2022-12-23T22:47:07.323Z,22.93
2022-12-23T22:52:13.037Z,19.73
2022-12-23T22:57:16.408Z,20.17
2022-12-23T23:02:19.914Z,20.53
2022-12-23T23:07:24.795Z,20.90
2022-12-23T23:12:28.567Z,20.03
2022-12-23T23:17:32.029Z,20.83
2022-12-23T23:22:36.943Z,20.57
2022-12-23T23:27:40.301Z,20.17
2022-12-23T23:32:43.840Z,20.63
2022-12-23T23:37:48.799Z,18.13
2022-12-23T23:42:52.221Z,18.70
2022-12-23T23:47:56.527Z,18.33
2022-12-23T23:53:01.688Z,19.30
2022-12-23T23:58:05.393Z,18.23
